Terminal Aerodrome Forecast
Issued by NWS

Home | Current Version | Previous Version | Text Only | Print | Product List | Glossary On
Versions: 1 2 3 4 5 6 7 8 9 10 11 12 13 14 15 16 17 18
129
FTUS43 KMQT 061120
TAFIWD
TAF
KIWD 061120Z 0612/0712 17009KT 6SM BR VCSH OVC015
     FM061700 20008KT 3SM -SN OVC020
     FM061800 21009KT 4SM -SN OVC030
     FM062000 22012G20KT 6SM -SN OVC025
     FM062200 22013G22KT P6SM VCSH BKN020
     FM070000 22012G20KT P6SM BKN035
     FM070100 22012G20KT P6SM OVC030
     FM070600 23015G25KT P6SM OVC025=

USA.gov is the U.S. government's official web portal to all federal, state and local government web resources and services.